Time;durP1;ratioP1;P1;durP2;ratioP2;P2;SDS_P1;SDS_P2;PMS_P1;PMS_P2;Temp;Humidity;BMP_temperature;BMP_pressure;BME280_temperature;BME280_humidity;BME280_pressure;Samples;Min_cycle;Max_cycle;Signal;HPM_P1;HPM_P2
2020/12/12 14:18:38;;;;;;;10.70;5.25;;;8.00;90.90;;;;;;6295658;22;1074959;-27
2020/12/12 14:23:50;;;;;;;9.40;4.25;;;8.10;91.40;;;;;;6339928;22;27823;-28
2020/12/12 14:29:28;;;;;;;9.82;5.32;;;8.10;91.10;;;;;;6339677;22;27394;-27
2020/12/12 14:32:12;;;;;;;11.23;5.63;;;8.10;91.30;;;;;;6339731;22;27382;-27
2020/12/12 14:34:57;;;;;;;9.85;5.40;;;8.10;91.30;;;;;;6339863;22;27427;-27
2020/12/12 14:37:44;;;;;;;10.75;5.60;;;8.10;91.20;;;;;;6339312;22;27414;-28
2020/12/12 14:40:30;;;;;;;13.10;5.53;;;8.00;91.20;;;;;;6335710;22;27284;-27
2020/12/12 14:43:15;;;;;;;11.23;4.90;;;8.00;91.20;;;;;;6332881;22;27330;-26
2020/12/12 14:45:59;;;;;;;9.40;5.47;;;7.90;91.20;;;;;;6332749;22;27839;-26
2020/12/12 14:48:44;;;;;;;10.63;5.97;;;7.90;91.20;;;;;;6332605;22;27379;-29
2020/12/12 14:51:28;;;;;;;12.50;5.38;;;7.80;91.20;;;;;;6332918;22;27343;-27
2020/12/12 14:54:16;;;;;;;10.63;5.72;;;7.70;91.30;;;;;;6331410;22;27311;-27
2020/12/12 14:57:00;;;;;;;11.65;5.55;;;7.70;91.50;;;;;;6332370;22;27890;-27
2020/12/12 14:59:45;;;;;;;10.85;5.68;;;7.60;91.50;;;;;;6332262;22;27361;-28
2020/12/12 15:02:30;;;;;;;8.95;5.57;;;7.60;91.70;;;;;;6332816;22;27315;-27
2020/12/12 15:05:15;;;;;;;11.82;5.22;;;7.50;91.70;;;;;;6332413;22;27277;-27
2020/12/12 15:07:59;;;;;;;9.52;5.28;;;7.50;91.80;;;;;;6332074;22;27352;-27
2020/12/12 15:10:44;;;;;;;7.45;5.40;;;7.40;91.90;;;;;;6332595;22;27490;-27
2020/12/12 15:13:29;;;;;;;10.77;6.25;;;7.40;91.90;;;;;;6332414;22;27299;-27
2020/12/12 15:16:14;;;;;;;9.27;5.05;;;7.30;92.00;;;;;;6332740;22;27310;-27
2020/12/12 15:18:59;;;;;;;9.30;5.97;;;7.20;92.00;;;;;;6331601;22;27323;-26
2020/12/12 15:21:45;;;;;;;14.00;6.32;;;7.20;92.20;;;;;;6332277;22;27344;-27
2020/12/12 15:24:30;;;;;;;10.65;6.65;;;7.10;92.30;;;;;;6332416;22;27374;-25
2020/12/12 15:27:15;;;;;;;9.30;6.78;;;7.10;92.50;;;;;;6332693;22;27338;-26
2020/12/12 15:30:00;;;;;;;11.25;6.90;;;7.00;92.50;;;;;;6332196;22;27352;-27
2020/12/12 15:32:46;;;;;;;12.85;6.72;;;6.90;92.60;;;;;;6332314;22;27534;-26
2020/12/12 15:35:31;;;;;;;12.27;6.82;;;6.90;92.50;;;;;;6332320;22;27287;-26
2020/12/12 15:38:16;;;;;;;18.58;7.35;;;6.80;92.60;;;;;;6332547;22;27262;-27
2020/12/12 15:41:00;;;;;;;14.77;8.38;;;6.80;92.60;;;;;;6332209;22;27386;-28
2020/12/12 15:43:45;;;;;;;11.32;6.78;;;6.70;92.70;;;;;;6332591;22;27357;-27
2020/12/12 15:46:32;;;;;;;12.25;7.18;;;6.70;92.80;;;;;;6332654;22;27263;-27
2020/12/12 15:49:17;;;;;;;11.52;7.15;;;6.60;92.80;;;;;;6332559;22;27310;-26
2020/12/12 15:52:01;;;;;;;12.27;7.18;;;6.60;92.90;;;;;;6331303;22;27845;-26
2020/12/12 15:54:46;;;;;;;14.18;7.18;;;6.50;93.00;;;;;;6332502;22;27370;-26
2020/12/12 15:57:30;;;;;;;9.80;6.32;;;6.50;93.10;;;;;;6332536;22;27361;-27
2020/12/12 16:00:15;;;;;;;11.32;7.00;;;6.40;93.10;;;;;;6332129;22;27318;-26
2020/12/12 16:02:59;;;;;;;9.90;5.45;;;6.40;93.20;;;;;;6332065;22;27373;-27
2020/12/12 16:05:47;;;;;;;10.68;6.75;;;6.40;93.30;;;;;;6331407;22;27339;-28
2020/12/12 16:08:31;;;;;;;9.68;5.32;;;6.40;93.40;;;;;;6332215;22;27287;-26
2020/12/12 16:11:16;;;;;;;9.10;5.70;;;6.30;93.40;;;;;;6331985;22;27326;-26
2020/12/12 16:14:04;;;;;;;7.15;4.78;;;6.30;93.40;;;;;;6332031;22;27318;-27
2020/12/12 16:16:49;;;;;;;10.57;5.38;;;6.30;93.50;;;;;;6332039;22;27374;-27
2020/12/12 16:19:33;;;;;;;10.00;5.95;;;6.20;93.50;;;;;;6332110;22;27422;-26
2020/12/12 16:22:17;;;;;;;9.05;6.10;;;6.20;93.60;;;;;;6331116;22;27341;-27
2020/12/12 16:25:03;;;;;;;11.18;6.25;;;6.20;93.60;;;;;;6332332;22;27874;-26
2020/12/12 16:27:48;;;;;;;11.02;6.43;;;6.20;93.60;;;;;;6331960;22;27475;-27
2020/12/12 16:30:33;;;;;;;9.70;6.60;;;6.10;93.60;;;;;;6331926;22;27350;-26
2020/12/12 16:33:18;;;;;;;11.60;6.95;;;6.10;93.60;;;;;;6331943;22;27452;-27
2020/12/12 16:36:02;;;;;;;9.57;6.47;;;6.10;93.60;;;;;;6331894;22;27349;-26
2020/12/12 16:38:49;;;;;;;10.43;6.47;;;6.10;93.70;;;;;;6331799;22;27315;-26
2020/12/12 16:41:34;;;;;;;14.95;7.60;;;6.10;93.70;;;;;;6331984;22;27384;-26
2020/12/12 16:44:19;;;;;;;9.60;6.55;;;6.00;93.60;;;;;;6332212;22;27407;-27
2020/12/12 16:47:04;;;;;;;10.93;6.35;;;6.00;93.70;;;;;;6332215;22;27432;-27
2020/12/12 16:49:48;;;;;;;12.20;7.22;;;6.00;93.70;;;;;;6332175;22;27433;-26
2020/12/12 16:52:33;;;;;;;9.50;7.00;;;6.00;93.70;;;;;;6332239;22;27375;-26
2020/12/12 16:55:18;;;;;;;13.27;7.32;;;6.00;93.70;;;;;;6331859;22;27429;-26
2020/12/12 16:58:03;;;;;;;11.77;6.57;;;5.90;93.70;;;;;;6331624;22;27314;-27
2020/12/12 17:00:50;;;;;;;12.52;6.90;;;5.90;93.70;;;;;;6331718;22;27284;-25
2020/12/12 17:03:37;;;;;;;10.10;6.40;;;5.90;93.70;;;;;;6331813;22;27378;-26
2020/12/12 17:06:22;;;;;;;10.88;6.60;;;5.90;93.70;;;;;;6331742;22;27350;-27
2020/12/12 17:09:10;;;;;;;12.90;7.68;;;5.90;93.80;;;;;;6331643;22;27474;-27
2020/12/12 17:11:55;;;;;;;10.82;6.50;;;5.90;93.80;;;;;;6331354;22;27272;-27
2020/12/12 17:14:39;;;;;;;12.32;7.88;;;5.80;93.80;;;;;;6331758;22;27339;-26
2020/12/12 17:17:24;;;;;;;15.50;8.02;;;5.80;93.80;;;;;;6331659;22;27264;-26
2020/12/12 17:20:09;;;;;;;12.45;7.80;;;5.80;93.80;;;;;;6331424;22;27812;-27
2020/12/12 17:22:54;;;;;;;14.10;8.88;;;5.80;93.80;;;;;;6330866;22;27415;-27
2020/12/12 17:25:41;;;;;;;12.55;7.43;;;5.80;94.20;;;;;;6331621;22;27302;-27
2020/12/12 17:28:26;;;;;;;14.27;8.20;;;5.80;93.90;;;;;;6331889;22;27323;-25
2020/12/12 17:31:10;;;;;;;14.20;8.55;;;5.70;93.90;;;;;;6331464;22;27286;-26
2020/12/12 17:33:55;;;;;;;14.27;8.73;;;5.70;93.90;;;;;;6331232;22;27382;-26
2020/12/12 17:36:42;;;;;;;11.65;8.07;;;5.70;93.90;;;;;;6331391;22;27307;-26
2020/12/12 17:39:27;;;;;;;14.43;9.18;;;5.70;93.90;;;;;;6330612;22;27394;-27
2020/12/12 17:42:13;;;;;;;14.75;8.65;;;5.70;93.90;;;;;;6331136;22;27275;-26
2020/12/12 17:44:57;;;;;;;17.50;8.27;;;5.70;93.90;;;;;;6331141;22;27303;-26
2020/12/12 17:47:44;;;;;;;15.07;8.85;;;5.70;93.90;;;;;;6330147;22;27303;-26
2020/12/12 17:50:29;;;;;;;13.40;8.15;;;5.70;93.90;;;;;;6331164;22;27396;-26
2020/12/12 17:53:15;;;;;;;16.80;8.70;;;5.70;93.90;;;;;;6331594;22;27434;-26
2020/12/12 17:56:00;;;;;;;15.23;8.70;;;5.70;93.90;;;;;;6331496;22;27405;-26
2020/12/12 17:58:45;;;;;;;14.55;9.27;;;5.60;93.90;;;;;;6330181;22;27470;-26
2020/12/12 18:01:36;;;;;;;15.15;9.13;;;5.60;93.90;;;;;;6331585;22;27432;-25
2020/12/12 18:04:23;;;;;;;14.18;8.88;;;5.60;93.90;;;;;;6330444;22;27284;-26
2020/12/12 18:07:08;;;;;;;15.27;9.68;;;5.60;93.90;;;;;;6330982;22;27448;-27
2020/12/12 18:09:52;;;;;;;14.57;9.10;;;5.60;93.90;;;;;;6330685;22;27284;-25
2020/12/12 18:12:37;;;;;;;14.05;8.70;;;5.60;93.90;;;;;;6330574;22;27334;-26
2020/12/12 18:15:22;;;;;;;13.32;8.68;;;5.60;93.90;;;;;;6331908;22;27279;-23
2020/12/12 18:18:06;;;;;;;14.98;8.93;;;5.60;93.90;;;;;;6332496;22;27468;-27
2020/12/12 18:20:51;;;;;;;15.18;9.15;;;5.60;94.00;;;;;;6332572;22;27268;-25
2020/12/12 18:23:36;;;;;;;14.27;9.07;;;5.60;94.00;;;;;;6332650;22;27264;-27
2020/12/12 18:26:20;;;;;;;13.52;9.00;;;5.50;94.00;;;;;;6331841;22;27316;-26
2020/12/12 18:29:08;;;;;;;14.70;9.40;;;5.50;94.00;;;;;;6332847;22;27325;-26
2020/12/12 18:31:52;;;;;;;14.77;9.40;;;5.50;94.00;;;;;;6332896;22;27279;-26
2020/12/12 18:34:40;;;;;;;14.25;9.23;;;5.50;94.00;;;;;;6332430;22;27291;-24
2020/12/12 18:37:24;;;;;;;12.63;9.38;;;5.50;94.10;;;;;;6332455;22;27884;-25
2020/12/12 18:40:11;;;;;;;13.55;9.10;;;5.50;94.10;;;;;;6332667;22;27432;-25
2020/12/12 18:42:59;;;;;;;12.80;9.23;;;5.50;94.10;;;;;;6332494;22;27419;-26
2020/12/12 18:45:47;;;;;;;14.40;9.10;;;5.50;94.10;;;;;;6332445;22;27282;-26
2020/12/12 18:48:32;;;;;;;13.27;9.10;;;5.50;94.10;;;;;;6330787;22;27320;-25
2020/12/12 18:51:17;;;;;;;13.35;9.07;;;5.50;94.10;;;;;;6332449;22;27357;-25
2020/12/12 18:54:02;;;;;;;13.80;9.32;;;5.50;94.10;;;;;;6332828;22;27308;-25
2020/12/12 18:56:47;;;;;;;13.13;8.85;;;5.50;94.10;;;;;;6332203;22;27348;-27
2020/12/12 18:59:35;;;;;;;20.55;9.95;;;5.50;94.20;;;;;;6332503;22;27895;-26
2020/12/12 19:02:20;;;;;;;14.63;9.00;;;5.50;94.10;;;;;;6331329;22;27406;-26
2020/12/12 19:05:06;;;;;;;16.50;10.30;;;5.50;94.10;;;;;;6332672;22;27434;-26
2020/12/12 19:07:53;;;;;;;14.40;9.60;;;5.50;94.20;;;;;;6332672;22;27383;-26
2020/12/12 19:10:40;;;;;;;13.98;9.63;;;5.50;94.20;;;;;;6332397;22;27391;-25
2020/12/12 19:13:25;;;;;;;13.35;10.10;;;5.40;94.20;;;;;;6331982;22;27383;-26
2020/12/12 19:16:10;;;;;;;12.77;8.50;;;5.40;94.20;;;;;;6332181;22;27675;-25
2020/12/12 19:18:54;;;;;;;16.15;9.27;;;5.40;94.30;;;;;;6332578;22;27288;-25
2020/12/12 19:21:39;;;;;;;13.07;9.25;;;5.40;94.30;;;;;;6332162;22;27090;-26
2020/12/12 19:24:24;;;;;;;17.67;9.95;;;5.40;94.30;;;;;;6332566;22;27417;-26
2020/12/12 19:27:08;;;;;;;15.00;10.15;;;5.40;94.30;;;;;;6332579;22;27276;-25
2020/12/12 19:29:53;;;;;;;15.23;9.40;;;5.40;94.30;;;;;;6332577;22;27362;-26
2020/12/12 19:32:37;;;;;;;14.07;9.48;;;5.40;94.30;;;;;;6332109;22;27359;-25
2020/12/12 19:35:25;;;;;;;15.10;9.70;;;5.40;94.30;;;;;;6331458;22;27417;-25
2020/12/12 19:38:09;;;;;;;14.55;10.02;;;5.30;94.30;;;;;;6332553;22;27350;-26
2020/12/12 19:40:56;;;;;;;18.05;10.60;;;5.30;94.30;;;;;;6332479;22;27256;-26
2020/12/12 19:43:41;;;;;;;13.38;9.27;;;5.30;94.40;;;;;;6331742;22;27564;-26
2020/12/12 19:46:26;;;;;;;15.32;9.90;;;5.30;94.40;;;;;;6332203;22;27327;-26
2020/12/12 19:49:10;;;;;;;13.10;9.65;;;5.30;94.40;;;;;;6332250;22;27371;-26
2020/12/12 19:51:55;;;;;;;13.65;10.18;;;5.30;94.40;;;;;;6332505;22;27300;-27
2020/12/12 19:54:41;;;;;;;14.30;10.07;;;5.30;94.40;;;;;;6331179;22;27296;-25
2020/12/12 19:57:26;;;;;;;14.45;9.93;;;5.30;94.40;;;;;;6332171;22;27434;-25
2020/12/12 20:00:10;;;;;;;13.95;9.32;;;5.30;94.40;;;;;;6332455;22;27291;-26
2020/12/12 20:02:55;;;;;;;16.13;10.52;;;5.30;94.50;;;;;;6332455;22;27267;-25
2020/12/12 20:05:40;;;;;;;15.23;9.57;;;5.30;94.50;;;;;;6332393;22;27330;-25
2020/12/12 20:08:24;;;;;;;13.15;8.88;;;5.30;94.40;;;;;;6331805;22;27350;-26
2020/12/12 20:11:09;;;;;;;12.27;9.27;;;5.30;94.50;;;;;;6332340;22;27318;-24
2020/12/12 20:13:53;;;;;;;14.07;9.55;;;5.30;94.50;;;;;;6332242;22;26887;-26
2020/12/12 20:16:38;;;;;;;13.95;9.43;;;5.20;94.50;;;;;;6332058;22;27362;-26
2020/12/12 20:19:23;;;;;;;15.95;9.23;;;5.20;94.50;;;;;;6331791;22;27439;-25
2020/12/12 20:22:08;;;;;;;12.10;9.30;;;5.20;94.50;;;;;;6331146;22;27378;-26
2020/12/12 20:24:54;;;;;;;13.13;9.00;;;5.20;94.50;;;;;;6332261;22;27393;-26
2020/12/12 20:27:39;;;;;;;12.80;8.95;;;5.30;94.50;;;;;;6332283;22;27328;-26
2020/12/12 20:30:23;;;;;;;12.35;7.90;;;5.30;94.50;;;;;;6332261;22;27448;-26
2020/12/12 20:33:08;;;;;;;12.70;9.52;;;5.20;94.50;;;;;;6332307;22;27307;-25
2020/12/12 20:35:53;;;;;;;12.70;8.90;;;5.20;94.50;;;;;;6331735;22;27056;-25
2020/12/12 20:38:37;;;;;;;12.00;8.27;;;5.20;94.50;;;;;;6331361;22;27433;-27
2020/12/12 20:41:22;;;;;;;11.15;8.55;;;5.20;94.50;;;;;;6332237;22;27454;-25
2020/12/12 20:44:08;;;;;;;12.77;8.35;;;5.20;94.50;;;;;;6331957;22;27488;-24
2020/12/12 20:46:52;;;;;;;12.40;8.75;;;5.20;94.50;;;;;;6332237;22;27385;-24
2020/12/12 20:49:36;;;;;;;12.95;7.80;;;5.20;94.50;;;;;;6332087;22;27425;-25
2020/12/12 20:52:21;;;;;;;13.07;9.38;;;5.20;94.50;;;;;;6331767;22;27354;-25
2020/12/12 20:55:07;;;;;;;12.63;8.63;;;5.20;94.40;;;;;;6332177;22;27417;-26
2020/12/12 20:57:52;;;;;;;14.85;9.32;;;5.20;94.50;;;;;;6332138;22;27347;-25
2020/12/12 21:00:37;;;;;;;13.10;8.85;;;5.20;94.50;;;;;;6331643;22;27420;-25
2020/12/12 21:03:21;;;;;;;14.13;9.65;;;5.20;94.50;;;;;;6331674;22;27402;-25
2020/12/12 21:06:06;;;;;;;12.65;9.52;;;5.20;94.50;;;;;;6332108;22;27420;-27
2020/12/12 21:08:50;;;;;;;12.55;8.88;;;5.20;94.50;;;;;;6331738;22;27410;-26
2020/12/12 21:11:35;;;;;;;13.23;8.70;;;5.20;94.50;;;;;;6330268;22;27989;-24
2020/12/12 21:14:20;;;;;;;12.73;8.63;;;5.10;94.50;;;;;;6331571;22;27358;-25
2020/12/12 21:17:05;;;;;;;14.23;9.27;;;5.10;94.50;;;;;;6331961;22;27417;-27
2020/12/12 21:19:49;;;;;;;14.20;8.77;;;5.10;94.50;;;;;;6331793;22;27363;-25
2020/12/12 21:22:34;;;;;;;13.25;8.63;;;5.10;94.50;;;;;;6331914;22;27383;-26
2020/12/12 21:25:20;;;;;;;11.00;8.02;;;5.10;94.50;;;;;;6331850;22;27375;-24
2020/12/12 21:28:04;;;;;;;11.80;7.93;;;5.10;94.50;;;;;;6331554;22;27089;-26
2020/12/12 21:30:49;;;;;;;12.65;8.77;;;5.10;94.50;;;;;;6331517;22;27382;-26
2020/12/12 21:33:33;;;;;;;12.10;8.60;;;5.10;94.60;;;;;;6331817;22;27876;-25
2020/12/12 21:36:18;;;;;;;13.38;7.90;;;5.10;94.60;;;;;;6287063;22;27316;-24
2020/12/12 21:39:05;;;;;;;11.05;7.75;;;5.10;94.60;;;;;;6332009;22;27564;-25
2020/12/12 21:41:50;;;;;;;12.73;8.15;;;5.10;94.50;;;;;;6331798;22;27350;-25
2020/12/12 21:44:34;;;;;;;12.50;8.43;;;5.10;94.80;;;;;;6331707;22;27363;-25
2020/12/12 21:47:20;;;;;;;11.60;8.25;;;5.10;94.60;;;;;;6331385;22;27424;-25
2020/12/12 21:50:09;;;;;;;13.85;7.93;;;5.10;94.60;;;;;;6332131;22;27366;-25
2020/12/12 21:52:53;;;;;;;10.30;7.10;;;5.00;94.60;;;;;;6332761;22;27382;-26
2020/12/12 21:55:38;;;;;;;15.32;8.75;;;5.00;94.70;;;;;;6332353;22;27466;-26
2020/12/12 21:58:22;;;;;;;10.00;7.82;;;5.00;94.70;;;;;;6332488;22;27359;-26
2020/12/12 22:01:08;;;;;;;9.40;7.70;;;5.00;94.80;;;;;;6332837;22;27447;-26
2020/12/12 22:03:53;;;;;;;11.48;8.25;;;5.00;94.80;;;;;;6332051;22;27365;-25
2020/12/12 22:06:43;;;;;;;10.38;7.43;;;5.00;94.70;;;;;;6332963;22;27308;-25
2020/12/12 22:09:28;;;;;;;11.90;7.45;;;5.00;94.80;;;;;;6333008;22;27271;-24
2020/12/12 22:12:13;;;;;;;11.60;7.55;;;5.00;94.80;;;;;;6331122;22;27354;-26
2020/12/12 22:14:57;;;;;;;13.75;8.35;;;5.00;94.90;;;;;;6333141;22;27264;-23
2020/12/12 22:17:42;;;;;;;11.63;7.15;;;5.00;94.90;;;;;;6332634;22;27283;-26
2020/12/12 22:20:26;;;;;;;10.98;7.90;;;5.00;94.90;;;;;;6332593;22;27321;-25
2020/12/12 22:23:11;;;;;;;12.02;7.78;;;5.00;94.80;;;;;;6332492;22;27572;-26
2020/12/12 22:25:55;;;;;;;10.65;7.65;;;5.00;94.70;;;;;;6332983;22;27280;-25
2020/12/12 22:28:40;;;;;;;13.13;7.82;;;5.00;94.70;;;;;;6331469;22;27353;-25
2020/12/12 22:31:25;;;;;;;13.73;8.05;;;5.00;95.10;;;;;;6332856;22;27303;-26
2020/12/12 22:34:09;;;;;;;12.63;8.52;;;5.00;94.70;;;;;;6332989;22;27335;-25
2020/12/12 22:36:54;;;;;;;13.52;8.23;;;5.00;94.70;;;;;;6332570;22;27339;-25
2020/12/12 22:39:39;;;;;;;11.80;8.27;;;5.00;94.70;;;;;;6331408;22;27832;-24
2020/12/12 22:42:23;;;;;;;11.02;7.82;;;5.00;94.60;;;;;;6332831;22;27305;-26
2020/12/12 22:45:09;;;;;;;10.75;7.95;;;5.00;94.60;;;;;;6332614;22;27359;-25
2020/12/12 22:47:56;;;;;;;12.63;7.88;;;5.00;94.70;;;;;;6332904;22;27353;-26
2020/12/12 22:50:42;;;;;;;9.18;7.00;;;5.00;94.70;;;;;;6332072;22;27837;-25
2020/12/12 22:53:26;;;;;;;11.10;7.35;;;5.00;94.60;;;;;;6332780;22;27355;-26
2020/12/12 22:56:20;;;;;;;10.85;7.55;;;5.00;94.60;;;;;;6332507;22;27334;-26
2020/12/12 22:59:04;;;;;;;12.02;7.40;;;4.90;94.70;;;;;;6332369;22;27488;-25
2020/12/12 23:01:49;;;;;;;10.10;7.43;;;4.90;94.70;;;;;;6332460;22;27330;-26
2020/12/12 23:04:34;;;;;;;11.52;7.40;;;4.90;94.70;;;;;;6332783;22;27377;-24
2020/12/12 23:07:18;;;;;;;10.07;7.05;;;4.90;94.70;;;;;;6332400;22;27404;-24
2020/12/12 23:10:04;;;;;;;10.95;7.22;;;4.90;94.70;;;;;;6332391;22;27355;-26
2020/12/12 23:12:49;;;;;;;9.27;6.88;;;4.90;94.80;;;;;;6331798;22;27344;-26
2020/12/12 23:15:34;;;;;;;10.02;7.05;;;4.80;94.80;;;;;;6332077;22;27386;-25
2020/12/12 23:18:19;;;;;;;10.52;6.97;;;4.80;94.90;;;;;;6332307;22;27276;-25
2020/12/12 23:21:04;;;;;;;11.68;7.13;;;4.80;94.90;;;;;;6332642;22;27303;-25
2020/12/12 23:23:48;;;;;;;10.88;6.80;;;4.80;94.90;;;;;;6332477;22;27393;-25
2020/12/12 23:26:33;;;;;;;8.57;6.95;;;4.80;94.90;;;;;;6332630;22;27414;-25
2020/12/12 23:29:17;;;;;;;11.32;7.40;;;4.80;95.30;;;;;;6332716;22;27410;-25
2020/12/12 23:32:02;;;;;;;9.95;6.47;;;4.80;94.90;;;;;;6332341;22;27405;-25
2020/12/12 23:34:47;;;;;;;9.65;6.72;;;4.80;94.90;;;;;;6332668;22;27803;-25
2020/12/12 23:37:31;;;;;;;9.15;6.57;;;4.80;95.00;;;;;;6332258;22;27359;-27
2020/12/12 23:40:16;;;;;;;9.77;7.05;;;4.80;95.00;;;;;;6331190;22;27453;-25
2020/12/12 23:43:01;;;;;;;10.88;6.65;;;4.80;95.00;;;;;;6332246;22;27358;-25
2020/12/12 23:45:47;;;;;;;8.93;6.63;;;4.80;95.30;;;;;;6331740;22;27368;-26
2020/12/12 23:48:31;;;;;;;10.07;7.00;;;4.80;95.00;;;;;;6332156;22;27453;-23
2020/12/12 23:51:16;;;;;;;10.10;6.55;;;4.80;95.00;;;;;;6331207;22;27364;-25
2020/12/12 23:54:00;;;;;;;10.95;6.82;;;4.80;95.00;;;;;;6331093;22;27380;-26
2020/12/12 23:56:45;;;;;;;10.65;6.88;;;4.80;95.00;;;;;;6332088;22;27426;-25
2020/12/12 23:59:29;;;;;;;9.13;6.85;;;4.80;95.00;;;;;;6332307;22;27581;-26
